Time;durP1;ratioP1;P1;durP2;ratioP2;P2;SDS_P1;SDS_P2;PMS_P1;PMS_P2;Temp;Humidity;BMP_temperature;BMP_pressure;BME280_temperature;BME280_humidity;BME280_pressure;Samples;Min_cycle;Max_cycle;Signal;HPM_P1;HPM_P2
2022/10/31 00:00:46;;;;;;;33.65;16.42;;;12.30;99.90;;;;;;5020520;28;20053;-89
2022/10/31 00:03:12;;;;;;;34.85;17.48;;;12.30;99.90;;;;;;5012300;28;20088;-86
2022/10/31 00:05:46;;;;;;;34.97;18.13;;;12.30;99.90;;;;;;5009848;28;20548;-83
2022/10/31 00:08:13;;;;;;;40.17;17.40;;;12.40;99.90;;;;;;5003959;28;20056;-81
2022/10/31 00:10:39;;;;;;;37.53;18.92;;;12.30;99.90;;;;;;5005694;28;20092;-90
2022/10/31 00:13:06;;;;;;;41.30;17.17;;;12.30;99.90;;;;;;5018810;28;20056;-89
2022/10/31 00:15:36;;;;;;;37.53;18.63;;;12.30;99.90;;;;;;4997895;28;20065;-91
2022/10/31 00:18:03;;;;;;;35.17;17.13;;;12.30;99.90;;;;;;5015309;28;20046;-90
2022/10/31 00:20:30;;;;;;;39.67;17.02;;;12.20;99.90;;;;;;5013572;28;20081;-82
2022/10/31 00:23:00;;;;;;;38.92;17.98;;;12.30;99.90;;;;;;5013288;28;20065;-82
2022/10/31 00:25:28;;;;;;;46.25;18.70;;;12.20;99.90;;;;;;5012678;28;20088;-87
2022/10/31 00:27:54;;;;;;;38.97;17.80;;;12.20;99.90;;;;;;5012435;28;20068;-88
2022/10/31 00:30:20;;;;;;;36.58;18.55;;;12.20;99.90;;;;;;4994971;28;20096;-85
2022/10/31 00:32:46;;;;;;;34.05;16.45;;;12.20;99.90;;;;;;4994970;28;20401;-83
2022/10/31 00:35:12;;;;;;;37.53;18.52;;;12.20;99.90;;;;;;4997220;28;20061;-88
2022/10/31 00:37:38;;;;;;;33.80;19.25;;;12.20;99.90;;;;;;4996882;28;20046;-90
2022/10/31 00:40:05;;;;;;;35.75;18.05;;;12.20;99.90;;;;;;4995184;28;20056;-89
2022/10/31 00:42:30;;;;;;;36.28;18.13;;;12.20;99.90;;;;;;4994376;28;20077;-91
2022/10/31 00:44:56;;;;;;;41.17;19.63;;;12.20;99.90;;;;;;5013791;28;20072;-89
2022/10/31 00:47:22;;;;;;;33.17;15.75;;;12.10;99.90;;;;;;5013496;28;20068;-85
2022/10/31 00:49:48;;;;;;;40.80;18.85;;;12.10;99.90;;;;;;4994353;28;20062;-85
2022/10/31 00:52:14;;;;;;;39.08;18.95;;;12.10;99.90;;;;;;5014118;28;20046;-82
2022/10/31 00:54:40;;;;;;;34.15;18.08;;;12.10;99.90;;;;;;4994461;28;20053;-83
2022/10/31 00:57:07;;;;;;;36.83;18.83;;;12.10;99.90;;;;;;5011815;28;20050;-82
2022/10/31 00:59:33;;;;;;;33.35;19.30;;;12.00;99.90;;;;;;4977468;28;20061;-82
2022/10/31 01:01:59;;;;;;;49.00;22.55;;;12.10;99.90;;;;;;5013797;28;20042;-84
2022/10/31 01:04:24;;;;;;;38.95;19.17;;;12.10;99.90;;;;;;5011973;28;20041;-81
2022/10/31 01:06:50;;;;;;;37.47;19.85;;;12.00;99.90;;;;;;4977541;28;20152;-82
2022/10/31 01:09:16;;;;;;;44.10;21.92;;;12.10;99.90;;;;;;4993537;28;20394;-91
2022/10/31 01:11:42;;;;;;;38.67;19.02;;;12.10;99.90;;;;;;5012215;28;20135;-82
2022/10/31 01:14:09;;;;;;;39.13;18.98;;;12.00;99.90;;;;;;5016373;28;20046;-82
2022/10/31 01:16:34;;;;;;;39.17;20.80;;;12.00;99.90;;;;;;5011581;28;20144;-82
2022/10/31 01:19:00;;;;;;;33.63;17.77;;;12.00;99.90;;;;;;4994120;28;20813;-82
2022/10/31 01:21:28;;;;;;;35.42;20.60;;;12.00;99.90;;;;;;5011474;28;20100;-88
2022/10/31 01:23:55;;;;;;;42.10;21.90;;;11.90;99.90;;;;;;5011649;28;20058;-82
2022/10/31 01:26:24;;;;;;;40.05;19.95;;;11.90;99.90;;;;;;4993281;28;20391;-81
2022/10/31 01:28:55;;;;;;;46.03;21.70;;;11.90;99.90;;;;;;4993469;28;20490;-84
2022/10/31 01:31:24;;;;;;;42.83;21.23;;;11.90;99.90;;;;;;5011148;28;20050;-82
2022/10/31 01:33:50;;;;;;;41.83;21.90;;;11.90;99.90;;;;;;4977435;28;20502;-82
2022/10/31 01:36:21;;;;;;;35.53;19.95;;;11.90;99.90;;;;;;4994298;28;20057;-86
2022/10/31 01:38:48;;;;;;;42.25;21.05;;;11.90;99.90;;;;;;4998442;28;20049;-85
2022/10/31 01:41:17;;;;;;;52.35;23.73;;;11.80;99.90;;;;;;4998225;28;20057;-88
2022/10/31 01:43:48;;;;;;;47.58;24.25;;;11.80;99.90;;;;;;5017256;28;20050;-85
2022/10/31 01:46:17;;;;;;;45.30;22.45;;;11.80;99.90;;;;;;5016892;28;20053;-85
2022/10/31 01:48:43;;;;;;;61.25;24.73;;;11.80;99.90;;;;;;5018277;28;20050;-82
2022/10/31 01:51:12;;;;;;;47.15;24.80;;;11.80;99.90;;;;;;5015600;28;20053;-86
2022/10/31 01:53:40;;;;;;;42.55;22.55;;;11.80;99.90;;;;;;5015178;28;20135;-86
2022/10/31 01:56:07;;;;;;;51.92;25.15;;;11.80;99.90;;;;;;5015087;28;20444;-82
2022/10/31 01:58:33;;;;;;;45.40;22.45;;;11.70;99.90;;;;;;4983894;28;20054;-82
2022/10/31 02:01:00;;;;;;;47.58;24.88;;;11.70;99.90;;;;;;5020347;28;20068;-90
2022/10/31 02:03:27;;;;;;;45.17;23.45;;;11.70;99.90;;;;;;5019949;28;20053;-84
2022/10/31 02:05:57;;;;;;;48.50;24.15;;;11.70;99.90;;;;;;4998146;28;20136;-88
2022/10/31 02:12:05;;;;;;;38.60;21.30;;;11.60;99.90;;;;;;5014755;28;20551;-82
2022/10/31 02:14:31;;;;;;;41.63;22.77;;;11.50;99.90;;;;;;5014616;28;20405;-88
2022/10/31 02:16:58;;;;;;;46.00;24.98;;;11.50;99.90;;;;;;4997575;28;20499;-85
2022/10/31 02:19:33;;;;;;;44.95;23.98;;;11.50;99.90;;;;;;4998675;28;20128;-83
2022/10/31 02:22:09;;;;;;;51.25;26.73;;;11.50;99.90;;;;;;5022341;28;20065;-83
2022/10/31 02:25:07;;;;;;;41.00;23.83;;;11.50;99.90;;;;;;5014077;28;20061;-87
2022/10/31 02:27:42;;;;;;;54.00;24.20;;;11.50;99.90;;;;;;4997086;28;20115;-88
2022/10/31 02:30:25;;;;;;;50.53;24.75;;;11.40;99.90;;;;;;4997782;28;20054;-85
2022/10/31 02:32:57;;;;;;;47.80;24.35;;;11.40;99.90;;;;;;4996514;28;20494;-84
2022/10/31 02:35:55;;;;;;;50.08;24.80;;;11.40;99.90;;;;;;5000845;28;20050;-84
2022/10/31 02:38:51;;;;;;;43.58;24.02;;;11.40;99.90;;;;;;4999306;28;20050;-81
2022/10/31 02:41:25;;;;;;;46.90;25.23;;;11.40;99.90;;;;;;5002680;28;20065;-83
2022/10/31 02:44:00;;;;;;;;;;;11.40;99.90;;;;;;5002324;28;20507;-81
2022/10/31 02:46:39;;;;;;;41.30;23.63;;;11.30;99.90;;;;;;5018016;28;20012;-81
2022/10/31 02:49:37;;;;;;;46.72;26.33;;;11.30;99.90;;;;;;5016836;28;20128;-81
2022/10/31 02:52:18;;;;;;;42.35;24.73;;;11.30;99.90;;;;;;5012572;28;20057;-83
2022/10/31 02:54:46;;;;;;;48.40;25.38;;;11.30;99.90;;;;;;5002732;28;20121;-84
2022/10/31 02:57:15;;;;;;;49.85;25.80;;;11.20;99.90;;;;;;5016445;28;20115;-82
2022/10/31 02:59:47;;;;;;;47.20;23.95;;;11.20;99.90;;;;;;5013783;28;20076;-81
2022/10/31 03:02:23;;;;;;;49.20;25.42;;;11.20;99.90;;;;;;4996048;28;20461;-82
2022/10/31 03:05:10;;;;;;;49.15;25.17;;;11.20;99.90;;;;;;5013491;28;20050;-82
2022/10/31 03:08:02;;;;;;;46.53;24.00;;;11.20;99.90;;;;;;4996506;28;20088;-87
2022/10/31 03:10:59;;;;;;;41.67;22.83;;;11.20;99.90;;;;;;5015702;28;20475;-83
2022/10/31 03:13:46;;;;;;;40.92;24.55;;;11.30;99.90;;;;;;5021245;28;20050;-84
2022/10/31 03:16:29;;;;;;;44.05;24.80;;;11.20;99.90;;;;;;5015568;28;20046;-86
2022/10/31 03:19:18;;;;;;;50.03;25.40;;;11.20;99.90;;;;;;4996803;28;20085;-82
2022/10/31 03:21:45;;;;;;;46.35;24.15;;;11.20;99.90;;;;;;4979608;28;20073;-82
2022/10/31 03:24:13;;;;;;;42.83;23.95;;;11.30;99.90;;;;;;5015039;28;20053;-84
2022/10/31 03:26:44;;;;;;;49.53;25.02;;;11.20;99.90;;;;;;5020712;28;20046;-82
2022/10/31 03:29:15;;;;;;;42.63;23.05;;;11.20;99.90;;;;;;5015768;28;20096;-85
2022/10/31 03:31:47;;;;;;;45.67;25.25;;;11.20;99.90;;;;;;5015134;28;20053;-86
2022/10/31 03:34:16;;;;;;;43.95;23.90;;;11.20;99.90;;;;;;5017981;28;20080;-81
2022/10/31 03:36:43;;;;;;;42.67;24.60;;;11.20;99.90;;;;;;5004804;28;20192;-83
2022/10/31 03:39:14;;;;;;;39.30;24.00;;;11.20;99.90;;;;;;5004767;28;20057;-85
2022/10/31 03:41:45;;;;;;;43.63;23.90;;;11.20;99.90;;;;;;5024573;28;20072;-82
2022/10/31 03:44:16;;;;;;;37.40;22.10;;;11.20;99.90;;;;;;5001017;28;20095;-81
2022/10/31 03:46:43;;;;;;;45.75;24.20;;;11.10;99.90;;;;;;5014564;28;20050;-82
2022/10/31 03:49:10;;;;;;;46.53;23.55;;;11.10;99.90;;;;;;5013599;28;20058;-81
2022/10/31 03:51:56;;;;;;;36.78;21.70;;;11.10;99.90;;;;;;4995717;28;20042;-81
2022/10/31 03:54:54;;;;;;;44.10;23.20;;;11.10;99.90;;;;;;5017444;28;20050;-84
2022/10/31 03:57:29;;;;;;;49.00;25.52;;;11.10;99.90;;;;;;5014625;28;20100;-89
2022/10/31 04:00:02;;;;;;;43.92;22.25;;;11.10;99.90;;;;;;4997120;28;20057;-84
2022/10/31 04:02:32;;;;;;;45.40;23.77;;;11.00;99.90;;;;;;4995201;28;20053;-84
2022/10/31 04:04:59;;;;;;;44.67;23.92;;;11.00;99.90;;;;;;4994434;28;20050;-81
2022/10/31 04:07:30;;;;;;;46.35;25.25;;;10.90;99.90;;;;;;5012977;28;20434;-83
2022/10/31 04:09:57;;;;;;;46.35;23.67;;;10.90;99.90;;;;;;4984659;28;20054;-81
2022/10/31 04:12:25;;;;;;;43.60;23.65;;;10.90;99.90;;;;;;5000846;28;20140;-90
2022/10/31 04:14:52;;;;;;;45.88;24.15;;;10.90;99.90;;;;;;4997063;28;20054;-84
2022/10/31 04:17:23;;;;;;;45.00;23.88;;;10.80;99.90;;;;;;5012309;28;20085;-84
2022/10/31 04:19:49;;;;;;;48.72;22.90;;;10.80;99.90;;;;;;5012186;28;20104;-85
2022/10/31 04:22:15;;;;;;;43.75;23.58;;;10.80;99.90;;;;;;4978682;28;20058;-83
2022/10/31 04:24:41;;;;;;;48.10;25.65;;;10.80;99.90;;;;;;5020329;28;20042;-85
2022/10/31 04:27:07;;;;;;;45.53;24.52;;;10.80;99.90;;;;;;5017520;28;20104;-86
2022/10/31 04:29:33;;;;;;;50.08;27.08;;;10.80;99.90;;;;;;4999338;28;20091;-88
2022/10/31 04:31:59;;;;;;;45.63;25.38;;;10.80;99.90;;;;;;4981926;28;20132;-81
2022/10/31 04:34:25;;;;;;;56.67;26.00;;;10.80;99.90;;;;;;4995894;28;20050;-85
2022/10/31 04:36:50;;;;;;;56.03;27.38;;;10.80;99.90;;;;;;4999427;28;20049;-82
2022/10/31 04:39:16;;;;;;;45.47;24.52;;;10.80;99.90;;;;;;5012178;28;20137;-82
2022/10/31 04:41:42;;;;;;;46.85;25.38;;;10.80;99.90;;;;;;5015636;28;20061;-83
2022/10/31 04:44:10;;;;;;;43.35;23.50;;;10.80;99.90;;;;;;5003279;28;20049;-86
2022/10/31 04:46:36;;;;;;;53.05;25.83;;;10.80;99.90;;;;;;5002784;28;20096;-84
2022/10/31 04:49:02;;;;;;;43.63;24.10;;;10.80;99.90;;;;;;5017891;28;20049;-83
2022/10/31 04:51:28;;;;;;;50.42;24.23;;;10.80;99.90;;;;;;5007860;28;20058;-91
2022/10/31 04:53:54;;;;;;;41.90;23.98;;;10.80;99.90;;;;;;5000249;28;20494;-82
2022/10/31 04:56:20;;;;;;;47.88;24.45;;;10.80;99.90;;;;;;4994160;28;20466;-82
2022/10/31 04:58:45;;;;;;;46.88;26.48;;;10.80;99.90;;;;;;4998961;28;20116;-82
2022/10/31 05:01:13;;;;;;;41.42;24.13;;;10.80;99.90;;;;;;5013184;28;20056;-84
2022/10/31 05:03:39;;;;;;;45.50;24.80;;;10.80;99.90;;;;;;5001826;28;20058;-85
2022/10/31 05:06:06;;;;;;;55.63;26.27;;;10.80;99.90;;;;;;4994781;28;20124;-82
2022/10/31 05:08:32;;;;;;;45.60;25.75;;;10.80;99.90;;;;;;4994470;28;20046;-82
2022/10/31 05:11:04;;;;;;;47.60;24.23;;;10.70;99.90;;;;;;5014338;28;20058;-87
2022/10/31 05:13:30;;;;;;;44.58;23.80;;;10.70;99.90;;;;;;5015621;28;20042;-83
2022/10/31 05:15:57;;;;;;;45.00;25.38;;;10.60;99.90;;;;;;5019623;28;20046;-87
2022/10/31 05:18:23;;;;;;;45.80;24.33;;;10.60;99.90;;;;;;5000830;28;20111;-86
2022/10/31 05:20:49;;;;;;;45.78;24.10;;;10.50;99.90;;;;;;5021033;28;20054;-87
2022/10/31 05:23:14;;;;;;;47.88;25.25;;;10.50;99.90;;;;;;4998897;28;20080;-82
2022/10/31 05:25:41;;;;;;;35.33;22.38;;;10.50;99.90;;;;;;5017592;28;20049;-84
2022/10/31 05:28:07;;;;;;;43.78;23.52;;;10.40;99.90;;;;;;4999889;28;20064;-89
2022/10/31 05:30:34;;;;;;;41.15;22.63;;;10.40;99.90;;;;;;5015746;28;20361;-89
2022/10/31 05:33:00;;;;;;;40.78;22.27;;;10.40;99.90;;;;;;5020992;28;20057;-85
2022/10/31 05:35:29;;;;;;;39.88;22.10;;;10.30;99.90;;;;;;4996807;28;20176;-84
2022/10/31 05:37:57;;;;;;;43.47;23.70;;;10.30;99.90;;;;;;5013420;28;20140;-83
2022/10/31 05:40:24;;;;;;;42.38;22.75;;;10.30;99.90;;;;;;4999324;28;20048;-88
2022/10/31 05:42:54;;;;;;;45.20;24.63;;;10.30;99.90;;;;;;5018382;28;20054;-82
2022/10/31 05:45:21;;;;;;;42.15;23.90;;;10.30;99.90;;;;;;5003761;28;20116;-87
2022/10/31 05:47:55;;;;;;;43.80;23.02;;;10.30;99.90;;;;;;5011832;28;20081;-86
2022/10/31 05:50:22;;;;;;;42.33;24.70;;;10.40;99.90;;;;;;4994207;28;20433;-84
2022/10/31 05:53:01;;;;;;;52.45;25.52;;;10.40;99.90;;;;;;4996039;28;20561;-89
2022/10/31 05:55:28;;;;;;;49.10;26.02;;;10.40;99.90;;;;;;4994498;28;20058;-82
2022/10/31 05:57:55;;;;;;;50.03;25.98;;;10.40;99.90;;;;;;5015739;28;20125;-81
2022/10/31 06:00:22;;;;;;;46.47;25.65;;;10.40;99.90;;;;;;5016622;28;20058;-87
2022/10/31 06:02:48;;;;;;;49.88;25.75;;;10.40;99.90;;;;;;5011033;28;20124;-82
2022/10/31 06:05:16;;;;;;;57.42;27.45;;;10.40;99.90;;;;;;5011461;28;20477;-87
2022/10/31 06:07:42;;;;;;;46.45;25.38;;;10.40;99.90;;;;;;4995660;28;20387;-85
2022/10/31 06:10:08;;;;;;;45.83;26.00;;;10.40;99.90;;;;;;5012653;28;20060;-87
2022/10/31 06:12:40;;;;;;;57.90;28.30;;;10.40;99.90;;;;;;5017921;28;20072;-82
2022/10/31 06:15:08;;;;;;;50.47;27.17;;;10.40;99.90;;;;;;5013411;28;20057;-82
2022/10/31 06:17:35;;;;;;;54.60;27.98;;;10.30;99.90;;;;;;4993802;28;20050;-86
2022/10/31 06:20:02;;;;;;;56.45;27.92;;;10.30;99.90;;;;;;5010518;28;20060;-82
2022/10/31 06:22:27;;;;;;;77.10;41.97;;;10.20;99.90;;;;;;5012072;28;20061;-84
2022/10/31 06:24:53;;;;;;;55.65;30.75;;;10.20;99.90;;;;;;5015283;28;20065;-87
2022/10/31 06:27:20;;;;;;;51.67;28.67;;;10.20;99.90;;;;;;5001019;28;20057;-83
2022/10/31 06:29:46;;;;;;;51.55;25.63;;;10.10;99.90;;;;;;5015173;28;20050;-82
2022/10/31 06:32:12;;;;;;;33.47;21.27;;;10.10;99.90;;;;;;5014325;28;20057;-81
2022/10/31 06:34:39;;;;;;;54.17;26.10;;;10.00;99.90;;;;;;5000350;28;20054;-83
2022/10/31 06:37:11;;;;;;;38.70;23.15;;;10.00;99.90;;;;;;5014897;28;20119;-85
2022/10/31 06:39:37;;;;;;;42.78;24.33;;;10.00;99.90;;;;;;4997928;28;20054;-83
2022/10/31 06:42:04;;;;;;;36.58;22.23;;;10.00;99.90;;;;;;5022207;28;20132;-83
2022/10/31 06:44:30;;;;;;;52.47;25.25;;;9.90;99.90;;;;;;4998855;28;20042;-87
2022/10/31 06:46:56;;;;;;;44.28;24.15;;;9.90;99.90;;;;;;4996232;28;20058;-91
2022/10/31 06:49:22;;;;;;;43.70;24.83;;;9.90;99.90;;;;;;5014190;28;20050;-88
2022/10/31 06:51:49;;;;;;;54.70;27.17;;;9.80;99.90;;;;;;5014104;28;20493;-83
2022/10/31 06:54:15;;;;;;;46.05;25.08;;;9.80;99.90;;;;;;4995976;28;20557;-83
2022/10/31 06:56:41;;;;;;;45.13;25.70;;;9.80;99.90;;;;;;4997909;28;20128;-84
2022/10/31 06:59:07;;;;;;;34.13;19.38;;;9.80;99.90;;;;;;5014596;28;20054;-86
2022/10/31 07:01:33;;;;;;;46.63;26.33;;;9.80;99.90;;;;;;5017903;28;20050;-83
2022/10/31 07:03:59;;;;;;;40.95;21.83;;;9.80;99.90;;;;;;4995928;28;20117;-84
2022/10/31 07:06:25;;;;;;;40.30;22.10;;;9.90;99.90;;;;;;4996140;28;20136;-82
2022/10/31 07:08:51;;;;;;;46.05;24.42;;;9.90;99.90;;;;;;4979598;28;20096;-86
2022/10/31 07:11:17;;;;;;;42.40;26.70;;;9.90;99.90;;;;;;5014234;28;20061;-88
2022/10/31 07:13:43;;;;;;;34.83;23.42;;;9.90;99.90;;;;;;5014723;28;20069;-83
2022/10/31 07:16:13;;;;;;;49.60;26.42;;;9.90;99.90;;;;;;5000629;28;20109;-83
2022/10/31 07:18:39;;;;;;;40.88;23.77;;;9.90;99.90;;;;;;4999058;28;20046;-86
2022/10/31 07:21:05;;;;;;;51.60;27.17;;;10.00;99.90;;;;;;4999184;28;20407;-87
2022/10/31 07:23:31;;;;;;;49.90;27.45;;;10.00;99.90;;;;;;5013880;28;20057;-86
2022/10/31 07:25:58;;;;;;;58.00;30.83;;;10.10;99.90;;;;;;5016294;28;20049;-83
2022/10/31 07:28:25;;;;;;;49.55;29.40;;;10.10;99.90;;;;;;4996783;28;20124;-87
2022/10/31 07:30:57;;;;;;;50.97;29.08;;;10.20;99.90;;;;;;5019855;28;20513;-85
2022/10/31 07:33:25;;;;;;;50.58;29.77;;;10.20;99.90;;;;;;4999558;28;20042;-85
2022/10/31 07:35:53;;;;;;;53.30;29.00;;;10.20;99.90;;;;;;4981676;28;20050;-88
2022/10/31 07:38:19;;;;;;;45.03;25.95;;;10.20;99.90;;;;;;4994663;28;20510;-82
2022/10/31 07:40:52;;;;;;;49.50;28.40;;;10.30;99.90;;;;;;5014776;28;20050;-83
2022/10/31 07:43:18;;;;;;;45.30;25.52;;;10.30;99.90;;;;;;4996868;28;20554;-84
2022/10/31 07:45:52;;;;;;;54.80;30.38;;;10.40;99.90;;;;;;4983118;28;20096;-88
2022/10/31 07:48:18;;;;;;;43.05;25.55;;;10.50;99.90;;;;;;4978940;28;20070;-86
2022/10/31 07:50:44;;;;;;;50.58;28.25;;;10.50;99.90;;;;;;5014629;28;20690;-83
2022/10/31 07:53:12;;;;;;;49.22;27.02;;;10.50;99.90;;;;;;5013514;28;20042;-83
2022/10/31 07:55:38;;;;;;;54.80;30.10;;;10.50;99.90;;;;;;5014902;28;20054;-84
2022/10/31 07:58:16;;;;;;;49.50;29.25;;;10.50;99.90;;;;;;4979866;28;20050;-81
2022/10/31 08:00:44;;;;;;;42.78;25.92;;;10.50;99.90;;;;;;4997840;28;20128;-83
2022/10/31 08:03:12;;;;;;;51.55;28.90;;;10.60;99.90;;;;;;4994905;28;20050;-81
2022/10/31 08:05:40;;;;;;;47.92;26.90;;;10.60;99.90;;;;;;4994968;28;20505;-86
2022/10/31 08:08:10;;;;;;;48.28;28.55;;;10.60;99.90;;;;;;4996919;28;20154;-83
2022/10/31 08:10:36;;;;;;;45.00;29.13;;;10.70;99.90;;;;;;5013976;28;20077;-83
2022/10/31 08:13:08;;;;;;;47.20;27.85;;;10.70;99.90;;;;;;5014612;28;20046;-84
2022/10/31 08:15:37;;;;;;;46.63;27.38;;;10.80;99.90;;;;;;5015517;28;20529;-82
2022/10/31 08:18:04;;;;;;;46.67;27.23;;;10.80;99.90;;;;;;5021078;28;20077;-88
2022/10/31 08:20:30;;;;;;;40.78;27.80;;;10.90;99.90;;;;;;4994392;28;20140;-84
2022/10/31 08:23:02;;;;;;;50.95;30.38;;;11.00;99.90;;;;;;4995642;28;20180;-83
2022/10/31 08:25:29;;;;;;;42.45;27.63;;;11.10;99.90;;;;;;5018464;28;20053;-87
2022/10/31 08:27:56;;;;;;;44.55;28.55;;;11.20;99.90;;;;;;4996181;28;20053;-84
2022/10/31 08:30:24;;;;;;;46.97;28.00;;;11.30;99.90;;;;;;5012429;28;20557;-85
2022/10/31 08:33:04;;;;;;;41.67;25.88;;;11.50;99.90;;;;;;5014526;28;20211;-86
2022/10/31 08:35:30;;;;;;;43.22;26.55;;;11.60;99.90;;;;;;5013172;28;20050;-87
2022/10/31 08:37:57;;;;;;;47.25;27.33;;;11.70;99.90;;;;;;4978523;28;20100;-81
2022/10/31 08:40:24;;;;;;;38.03;24.05;;;11.80;99.90;;;;;;5015780;28;20054;-82
2022/10/31 08:43:01;;;;;;;38.67;24.05;;;11.90;99.90;;;;;;5012655;28;20064;-88
2022/10/31 08:45:28;;;;;;;34.95;22.83;;;12.00;99.90;;;;;;5016893;28;20046;-81
2022/10/31 08:48:06;;;;;;;39.63;22.80;;;12.10;99.90;;;;;;4978117;28;20064;-81
2022/10/31 08:50:34;;;;;;;41.47;22.88;;;12.10;99.90;;;;;;5011393;28;20053;-82
2022/10/31 08:53:12;;;;;;;35.25;21.73;;;12.20;99.90;;;;;;4994745;28;20409;-85
2022/10/31 08:55:39;;;;;;;33.38;22.27;;;12.30;99.90;;;;;;5013743;28;20054;-85
2022/10/31 08:58:09;;;;;;;31.20;22.02;;;12.40;99.90;;;;;;4995208;28;20060;-88
2022/10/31 09:00:35;;;;;;;34.42;20.38;;;12.50;99.90;;;;;;4994428;28;20060;-84
2022/10/31 09:03:13;;;;;;;29.50;20.50;;;12.50;99.90;;;;;;5017608;28;20085;-89
2022/10/31 09:05:39;;;;;;;31.65;18.73;;;12.50;99.90;;;;;;5015104;28;20061;-85
2022/10/31 09:08:07;;;;;;;31.80;19.88;;;12.50;99.90;;;;;;5017370;28;20060;-82
2022/10/31 09:10:35;;;;;;;26.20;19.08;;;12.50;99.90;;;;;;5013772;28;20042;-83
2022/10/31 09:13:06;;;;;;;26.90;17.48;;;12.60;99.90;;;;;;5013136;28;20133;-87
2022/10/31 09:15:38;;;;;;;27.52;18.63;;;12.70;99.90;;;;;;4996715;28;20376;-81
2022/10/31 09:18:06;;;;;;;25.05;17.02;;;12.80;99.90;;;;;;4997189;28;20054;-82
2022/10/31 09:20:34;;;;;;;27.40;17.02;;;12.80;99.90;;;;;;4994399;28;20137;-82
2022/10/31 09:23:30;;;;;;;26.83;17.63;;;12.90;99.90;;;;;;5014337;28;20069;-81
2022/10/31 09:26:00;;;;;;;24.50;15.90;;;13.00;99.90;;;;;;4977709;28;20050;-82
2022/10/31 09:28:26;;;;;;;22.20;15.25;;;13.10;99.90;;;;;;5011712;28;20140;-84
2022/10/31 09:30:53;;;;;;;24.23;15.63;;;13.10;99.90;;;;;;5012819;28;20046;-82
2022/10/31 09:33:20;;;;;;;27.27;15.50;;;13.20;99.90;;;;;;4994447;28;20104;-89
2022/10/31 09:35:45;;;;;;;20.90;14.90;;;13.30;99.90;;;;;;5014581;28;20054;-82
2022/10/31 09:38:15;;;;;;;26.15;15.32;;;13.40;99.90;;;;;;5012618;28;20052;-81
2022/10/31 09:40:43;;;;;;;21.40;12.55;;;13.50;99.90;;;;;;5014353;28;20065;-82
2022/10/31 09:43:30;;;;;;;20.98;14.73;;;13.60;99.90;;;;;;5015508;28;20061;-86
2022/10/31 09:46:22;;;;;;;21.27;13.93;;;13.60;99.90;;;;;;4997320;28;20085;-81
2022/10/31 09:49:12;;;;;;;19.98;13.10;;;13.70;99.90;;;;;;5016038;28;20068;-87
2022/10/31 09:51:43;;;;;;;20.42;11.95;;;13.70;99.90;;;;;;4995705;28;20077;-83
2022/10/31 09:54:18;;;;;;;18.45;12.52;;;13.80;99.90;;;;;;5012350;28;20100;-82
2022/10/31 09:56:44;;;;;;;23.45;14.05;;;13.80;99.90;;;;;;5015594;28;20054;-85
2022/10/31 09:59:30;;;;;;;18.60;10.38;;;13.90;99.90;;;;;;5013978;28;20560;-82
2022/10/31 10:02:19;;;;;;;21.00;12.38;;;14.10;99.90;;;;;;4996350;28;20085;-83
2022/10/31 10:05:03;;;;;;;17.80;10.77;;;14.20;99.90;;;;;;5006008;28;20050;-85
2022/10/31 10:07:39;;;;;;;17.27;11.32;;;14.40;99.90;;;;;;4999970;28;20053;-85
2022/10/31 10:10:28;;;;;;;16.23;10.75;;;14.50;99.90;;;;;;4999636;28;20518;-82
2022/10/31 10:13:03;;;;;;;16.30;10.52;;;14.60;99.90;;;;;;4982146;28;20100;-85
2022/10/31 10:15:54;;;;;;;15.05;10.40;;;14.70;99.90;;;;;;5003590;28;20108;-81
2022/10/31 10:19:01;;;;;;;17.52;9.25;;;14.80;99.90;;;;;;4997850;28;20140;-85
2022/10/31 10:21:39;;;;;;;15.02;8.65;;;14.90;99.90;;;;;;5017857;28;20061;-85
2022/10/31 10:24:12;;;;;;;17.23;8.82;;;14.80;99.90;;;;;;5020254;28;20088;-85
2022/10/31 10:26:43;;;;;;;14.57;7.53;;;14.90;99.90;;;;;;5000869;28;20069;-82
2022/10/31 10:29:28;;;;;;;12.85;8.02;;;14.90;99.90;;;;;;5019534;28;20049;-86
2022/10/31 10:31:57;;;;;;;15.95;8.30;;;14.90;99.90;;;;;;5002028;28;20139;-86
2022/10/31 10:34:34;;;;;;;12.57;6.80;;;15.10;99.90;;;;;;4997483;28;20057;-83
2022/10/31 10:37:14;;;;;;;16.00;7.10;;;15.30;99.90;;;;;;5001315;28;20098;-81
2022/10/31 10:39:45;;;;;;;11.88;7.10;;;15.40;99.90;;;;;;5015305;28;20074;-85
2022/10/31 10:47:51;;;;;;;13.73;7.30;;;16.20;99.90;;;;;;5018353;28;20045;-80
2022/10/31 10:50:18;;;;;;;12.15;6.63;;;16.50;99.90;;;;;;5022334;28;20057;-85
2022/10/31 10:52:50;;;;;;;11.45;6.05;;;16.70;99.90;;;;;;5021750;28;20053;-82
2022/10/31 10:55:48;;;;;;;13.85;7.07;;;16.90;99.90;;;;;;5000830;28;20058;-83
2022/10/31 10:58:14;;;;;;;11.38;6.18;;;17.00;99.90;;;;;;5000684;28;20064;-83
2022/10/31 11:00:49;;;;;;;17.23;5.45;;;17.20;99.90;;;;;;4999830;28;20053;-82
2022/10/31 11:03:17;;;;;;;14.15;7.05;;;17.10;99.90;;;;;;4999862;28;20104;-87
2022/10/31 11:05:44;;;;;;;12.75;6.63;;;17.10;99.90;;;;;;5006635;28;20810;-83
2022/10/31 11:08:11;;;;;;;12.20;6.03;;;17.00;99.90;;;;;;5021428;28;20053;-85
2022/10/31 11:10:40;;;;;;;12.18;5.88;;;17.10;99.90;;;;;;4998401;28;20136;-86
2022/10/31 11:13:12;;;;;;;16.17;6.72;;;17.10;99.90;;;;;;5014984;28;20046;-86
2022/10/31 11:16:03;;;;;;;9.10;5.68;;;17.80;99.90;;;;;;5014809;28;20061;-86
2022/10/31 11:18:32;;;;;;;11.25;5.32;;;19.10;99.90;;;;;;5017015;28;20049;-81
2022/10/31 11:21:00;;;;;;;10.35;5.80;;;20.20;99.90;;;;;;5014394;28;20089;-84
2022/10/31 11:23:28;;;;;;;10.48;4.82;;;21.40;99.90;;;;;;5002098;28;20109;-81
2022/10/31 11:25:57;;;;;;;10.95;5.00;;;22.30;99.90;;;;;;5015218;28;20511;-85
2022/10/31 11:28:24;;;;;;;8.10;5.20;;;22.90;99.90;;;;;;5017206;28;20054;-85
2022/10/31 11:30:59;;;;;;;13.57;5.13;;;23.20;99.90;;;;;;5014357;28;20050;-81
2022/10/31 11:33:32;;;;;;;14.75;4.95;;;23.50;99.90;;;;;;5018937;28;20046;-84
2022/10/31 11:36:00;;;;;;;8.77;4.25;;;24.10;99.90;;;;;;5004136;28;20124;-82
2022/10/31 11:38:39;;;;;;;8.43;5.05;;;24.50;98.90;;;;;;4984653;28;20054;-81
2022/10/31 11:41:17;;;;;;;8.82;4.50;;;24.80;97.00;;;;;;4997490;28;20057;-84
2022/10/31 11:44:00;;;;;;;8.90;4.63;;;25.40;95.30;;;;;;4996225;28;20096;-83
2022/10/31 11:46:38;;;;;;;9.43;4.35;;;25.10;95.20;;;;;;5016483;28;20088;-86
2022/10/31 11:49:11;;;;;;;10.75;4.25;;;24.80;94.80;;;;;;5001657;28;20638;-83
2022/10/31 11:51:37;;;;;;;8.52;4.47;;;24.30;96.30;;;;;;5015880;28;20065;-83
2022/10/31 11:54:05;;;;;;;9.68;5.22;;;23.60;97.00;;;;;;5017333;28;20456;-83
2022/10/31 11:56:41;;;;;;;7.35;4.22;;;22.60;98.50;;;;;;5012972;28;20069;-82
2022/10/31 11:59:28;;;;;;;7.47;4.00;;;22.00;99.30;;;;;;5012966;28;20083;-82
2022/10/31 12:01:57;;;;;;;9.20;3.75;;;22.10;98.50;;;;;;5014293;28;20050;-82
2022/10/31 12:04:34;;;;;;;9.68;3.67;;;22.60;98.70;;;;;;5021368;28;20437;-81
2022/10/31 12:07:00;;;;;;;11.30;3.85;;;22.70;98.00;;;;;;5014748;28;20049;-81
2022/10/31 12:09:34;;;;;;;7.82;3.60;;;23.20;98.20;;;;;;4998324;28;20081;-81
2022/10/31 12:12:00;;;;;;;6.53;2.70;;;24.00;96.10;;;;;;5016095;28;20532;-86
2022/10/31 12:14:51;;;;;;;7.05;3.08;;;24.80;95.90;;;;;;4999142;28;20050;-82
2022/10/31 12:17:24;;;;;;;16.10;5.43;;;25.30;94.10;;;;;;5019368;28;20050;-80
2022/10/31 12:20:15;;;;;;;10.50;4.15;;;25.40;94.10;;;;;;5014828;28;20129;-82
2022/10/31 12:23:06;;;;;;;8.30;4.13;;;25.30;93.60;;;;;;5016249;28;20056;-79
2022/10/31 12:25:51;;;;;;;7.63;4.15;;;24.80;93.60;;;;;;5016565;28;20050;-82
2022/10/31 12:28:56;;;;;;;9.60;4.10;;;24.50;93.90;;;;;;5003578;28;20076;-83
2022/10/31 12:31:27;;;;;;;8.68;3.70;;;24.10;93.30;;;;;;5020361;28;20046;-82
2022/10/31 12:33:53;;;;;;;10.52;3.97;;;24.30;94.50;;;;;;5012729;28;20502;-81
2022/10/31 12:36:28;;;;;;;12.45;4.88;;;24.20;94.60;;;;;;4994681;28;20524;-81
2022/10/31 12:39:35;;;;;;;10.55;5.80;;;24.10;93.50;;;;;;4994831;28;20147;-84
2022/10/31 12:42:07;;;;;;;9.35;4.45;;;23.50;94.90;;;;;;4973692;28;20130;-80
2022/10/31 12:45:16;;;;;;;8.95;4.78;;;22.90;95.80;;;;;;4961208;28;20447;-80
2022/10/31 12:47:59;;;;;;;9.77;5.43;;;22.80;95.90;;;;;;5010974;28;20184;-81
2022/10/31 12:50:28;;;;;;;10.52;4.90;;;22.40;96.40;;;;;;5013312;28;20046;-82
2022/10/31 12:53:03;;;;;;;9.88;4.55;;;22.00;97.20;;;;;;4994339;28;20065;-86
2022/10/31 12:55:50;;;;;;;8.90;4.88;;;21.70;97.90;;;;;;4978312;28;20146;-83
2022/10/31 12:58:31;;;;;;;11.23;5.45;;;21.20;98.60;;;;;;4998052;28;20080;-81
2022/10/31 13:01:16;;;;;;;10.13;5.53;;;20.80;99.70;;;;;;5018566;28;20513;-85